Time;durP1;ratioP1;P1;durP2;ratioP2;P2;SDS_P1;SDS_P2;PMS_P1;PMS_P2;Temp;Humidity;BMP_temperature;BMP_pressure;BME280_temperature;BME280_humidity;BME280_pressure;Samples;Min_cycle;Max_cycle;Signal;HPM_P1;HPM_P2
2022/08/09 00:02:05;;;;;;;1.35;0.90;;;23.10;61.40;;;;;;5074403;28;20139;-68
2022/08/09 00:04:34;;;;;;;0.95;0.70;;;23.00;61.20;;;;;;5074478;28;20051;-67
2022/08/09 00:07:01;;;;;;;1.00;0.90;;;22.80;61.80;;;;;;5073898;28;20044;-67
2022/08/09 00:09:27;;;;;;;2.00;0.88;;;22.80;61.80;;;;;;5072978;28;20040;-68
2022/08/09 00:11:55;;;;;;;2.70;0.98;;;22.80;61.80;;;;;;5073671;28;20048;-68
2022/08/09 00:14:22;;;;;;;1.02;0.88;;;22.80;62.00;;;;;;5073581;28;20455;-68
2022/08/09 00:16:48;;;;;;;0.98;0.88;;;22.70;62.60;;;;;;5072310;28;20059;-68
2022/08/09 00:19:14;;;;;;;1.63;0.85;;;22.50;62.70;;;;;;5073410;28;20045;-68
2022/08/09 00:21:40;;;;;;;2.25;1.02;;;22.80;62.70;;;;;;5073187;28;20052;-68
2022/08/09 00:24:07;;;;;;;1.15;0.80;;;22.70;62.80;;;;;;5073985;28;20040;-68
2022/08/09 00:26:35;;;;;;;1.63;1.33;;;22.60;63.20;;;;;;5073686;28;20080;-68
2022/08/09 00:29:03;;;;;;;1.55;1.10;;;22.50;63.30;;;;;;5073377;28;20062;-68
2022/08/09 00:31:30;;;;;;;1.25;0.90;;;22.40;63.00;;;;;;5072457;28;20121;-68
2022/08/09 00:33:56;;;;;;;1.13;0.80;;;22.40;63.30;;;;;;5072503;28;20063;-68
2022/08/09 00:36:23;;;;;;;1.52;1.00;;;22.50;62.90;;;;;;5072142;28;20071;-67
2022/08/09 00:38:50;;;;;;;0.63;0.60;;;22.50;62.70;;;;;;5073831;28;20660;-68
2022/08/09 00:41:19;;;;;;;2.08;0.93;;;22.30;63.30;;;;;;5072304;28;20051;-68
2022/08/09 00:43:45;;;;;;;0.95;0.85;;;22.40;63.30;;;;;;5074010;28;20037;-67
2022/08/09 00:46:11;;;;;;;1.00;0.85;;;22.50;63.10;;;;;;5073596;28;20046;-68
2022/08/09 00:48:38;;;;;;;1.88;0.93;;;22.40;63.20;;;;;;5072215;28;20044;-68
2022/08/09 00:51:07;;;;;;;1.02;0.88;;;22.50;62.80;;;;;;5073021;28;20040;-67
2022/08/09 00:53:38;;;;;;;3.45;1.02;;;22.60;62.90;;;;;;5056105;28;20127;-68
2022/08/09 00:56:06;;;;;;;1.42;1.23;;;22.60;62.90;;;;;;5073178;28;20503;-68
2022/08/09 00:58:36;;;;;;;1.73;1.02;;;22.50;62.70;;;;;;5073030;28;20149;-68
2022/08/09 01:01:26;;;;;;;1.33;1.10;;;22.40;63.00;;;;;;5072934;28;20063;-67
2022/08/09 01:04:05;;;;;;;1.30;0.93;;;22.10;63.40;;;;;;5072126;28;20045;-68
2022/08/09 01:06:56;;;;;;;2.10;1.23;;;22.00;64.00;;;;;;5072712;28;20040;-69
2022/08/09 01:09:44;;;;;;;1.10;1.00;;;22.00;63.90;;;;;;5072654;28;20039;-68
2022/08/09 01:12:29;;;;;;;1.00;0.80;;;22.00;64.30;;;;;;5073256;28;20036;-68
2022/08/09 01:15:06;;;;;;;3.10;0.70;;;21.80;64.60;;;;;;5071991;28;20177;-67
2022/08/09 01:17:40;;;;;;;3.28;0.85;;;21.80;65.00;;;;;;5069163;28;20039;-68
2022/08/09 01:20:12;;;;;;;2.17;0.95;;;21.80;65.20;;;;;;5066569;28;20052;-68
2022/08/09 01:23:12;;;;;;;1.10;0.90;;;21.80;64.90;;;;;;5054630;28;20111;-69
2022/08/09 01:25:59;;;;;;;1.02;0.88;;;22.00;64.80;;;;;;5072805;28;20043;-67
2022/08/09 01:28:33;;;;;;;1.40;1.00;;;21.90;64.80;;;;;;5072507;28;20522;-68
2022/08/09 01:31:04;;;;;;;1.63;1.13;;;22.00;64.80;;;;;;5052160;28;20136;-68
2022/08/09 01:33:35;;;;;;;1.10;1.00;;;21.90;64.80;;;;;;5060327;28;20127;-69
2022/08/09 01:36:10;;;;;;;1.40;1.00;;;21.80;65.00;;;;;;5072688;28;20043;-67
2022/08/09 01:38:41;;;;;;;0.98;0.88;;;21.80;65.00;;;;;;5072683;28;20112;-68
2022/08/09 01:41:28;;;;;;;2.17;1.10;;;21.80;65.40;;;;;;5071051;28;20036;-68
2022/08/09 01:44:00;;;;;;;1.35;1.02;;;21.80;65.40;;;;;;5072397;28;20036;-68
2022/08/09 01:46:37;;;;;;;1.30;0.93;;;21.80;65.70;;;;;;5092046;28;20119;-69
2022/08/09 01:49:11;;;;;;;2.10;1.02;;;21.90;65.20;;;;;;5085808;28;20054;-69
2022/08/09 01:51:41;;;;;;;2.67;1.10;;;21.90;65.20;;;;;;5072839;28;20044;-68
2022/08/09 01:54:08;;;;;;;1.25;1.00;;;21.90;65.40;;;;;;5072900;28;20441;-68
2022/08/09 01:56:38;;;;;;;1.35;1.05;;;21.80;65.70;;;;;;5072618;28;20051;-68
2022/08/09 01:59:09;;;;;;;1.92;1.10;;;21.80;65.30;;;;;;5072224;28;20029;-69
2022/08/09 02:01:38;;;;;;;1.33;1.00;;;21.70;66.00;;;;;;5072454;28;20052;-68
2022/08/09 02:04:05;;;;;;;1.85;1.05;;;21.70;66.20;;;;;;5073750;28;20052;-68
2022/08/09 02:09:18;;;;;;;1.58;1.10;;;21.60;66.40;;;;;;5076628;28;20043;-68
2022/08/09 02:11:45;;;;;;;2.95;1.10;;;21.60;66.70;;;;;;5075171;28;20143;-68
2022/08/09 02:14:15;;;;;;;4.72;1.33;;;21.50;66.80;;;;;;5076355;28;20101;-68
2022/08/09 02:16:42;;;;;;;1.33;1.02;;;21.60;66.50;;;;;;5080945;28;20048;-68
2022/08/09 02:19:08;;;;;;;1.30;1.00;;;21.70;66.60;;;;;;5095694;28;20071;-68
2022/08/09 02:21:40;;;;;;;1.42;0.93;;;21.60;66.50;;;;;;5096634;28;20121;-68
2022/08/09 02:24:11;;;;;;;1.70;1.00;;;21.60;67.00;;;;;;5096582;28;20563;-67
2022/08/09 02:26:40;;;;;;;1.20;1.10;;;21.40;67.20;;;;;;5096379;28;20036;-67
2022/08/09 02:29:20;;;;;;;1.10;1.00;;;21.40;67.30;;;;;;5081030;28;20409;-67
2022/08/09 02:31:48;;;;;;;1.00;0.90;;;21.30;68.00;;;;;;5096529;28;20498;-68
2022/08/09 02:34:18;;;;;;;2.80;1.08;;;21.10;68.20;;;;;;5096521;28;20074;-68
2022/08/09 02:36:51;;;;;;;1.15;1.00;;;21.00;68.50;;;;;;5096170;28;20032;-68
2022/08/09 02:39:29;;;;;;;4.45;1.27;;;21.10;68.00;;;;;;5096219;28;20079;-68
2022/08/09 02:42:05;;;;;;;1.20;1.10;;;21.20;67.70;;;;;;5096185;28;20105;-68
2022/08/09 02:44:35;;;;;;;1.20;1.10;;;21.30;67.20;;;;;;5096388;28;20528;-68
2022/08/09 02:47:05;;;;;;;2.67;1.35;;;21.60;66.60;;;;;;5096204;28;20077;-68
2022/08/09 02:49:40;;;;;;;1.88;1.13;;;21.40;67.00;;;;;;5092951;28;20483;-68
2022/08/09 02:52:11;;;;;;;1.30;1.00;;;21.50;67.20;;;;;;5084525;28;20044;-68
2022/08/09 02:54:38;;;;;;;2.28;1.10;;;21.30;67.40;;;;;;5075879;28;20039;-67
2022/08/09 02:57:05;;;;;;;1.00;0.90;;;21.40;67.30;;;;;;5075811;28;20129;-68
2022/08/09 02:59:34;;;;;;;1.88;1.10;;;21.50;67.10;;;;;;5074640;28;20037;-67
2022/08/09 03:02:01;;;;;;;1.35;1.00;;;21.50;67.20;;;;;;5075654;28;20182;-67
2022/08/09 03:04:29;;;;;;;1.58;1.00;;;21.30;67.40;;;;;;5075657;28;20487;-68
2022/08/09 03:06:58;;;;;;;1.70;1.27;;;21.30;67.90;;;;;;5075458;28;20045;-68
2022/08/09 03:09:24;;;;;;;1.30;1.10;;;21.30;68.00;;;;;;5075484;28;20119;-68
2022/08/09 03:11:53;;;;;;;1.42;0.93;;;21.20;68.50;;;;;;5075583;28;20418;-68
2022/08/09 03:14:20;;;;;;;0.90;0.90;;;21.10;68.90;;;;;;5074910;28;20071;-67
2022/08/09 03:16:46;;;;;;;4.60;1.23;;;20.90;68.80;;;;;;5075324;28;20040;-68
2022/08/09 03:19:15;;;;;;;1.30;1.17;;;21.20;68.30;;;;;;5075406;28;20094;-67
2022/08/09 03:21:42;;;;;;;1.13;1.02;;;21.70;67.50;;;;;;5073922;28;20072;-68
2022/08/09 03:24:08;;;;;;;1.27;1.17;;;21.50;67.80;;;;;;5075296;28;20443;-68
2022/08/09 03:26:36;;;;;;;1.50;1.02;;;21.50;67.80;;;;;;5073832;28;20067;-68
2022/08/09 03:29:02;;;;;;;2.33;1.20;;;21.40;68.30;;;;;;5075059;28;20098;-68
2022/08/09 03:31:28;;;;;;;1.25;1.08;;;21.30;68.30;;;;;;5075182;28;20040;-68
2022/08/09 03:33:55;;;;;;;1.23;1.00;;;21.20;68.90;;;;;;5075150;28;20032;-67
2022/08/09 03:36:22;;;;;;;1.70;1.20;;;21.00;69.20;;;;;;5074909;28;20033;-68
2022/08/09 03:38:50;;;;;;;1.70;1.40;;;20.90;69.40;;;;;;5075058;28;20564;-68
2022/08/09 03:41:15;;;;;;;1.27;1.17;;;20.90;69.60;;;;;;5073625;28;20105;-68
2022/08/09 03:43:43;;;;;;;1.45;1.05;;;20.90;69.90;;;;;;5074926;28;20044;-68
2022/08/09 03:46:08;;;;;;;1.60;1.17;;;20.80;69.00;;;;;;5074827;28;20047;-68
2022/08/09 03:48:36;;;;;;;1.95;1.45;;;21.00;69.20;;;;;;5074917;28;20041;-68
2022/08/09 03:51:06;;;;;;;1.52;1.10;;;20.80;69.00;;;;;;5074948;28;20506;-68
2022/08/09 03:53:36;;;;;;;1.10;1.00;;;21.20;68.80;;;;;;5074817;28;20036;-68
2022/08/09 03:56:03;;;;;;;2.13;1.20;;;20.90;69.30;;;;;;5074744;28;20537;-68
2022/08/09 03:58:29;;;;;;;1.20;1.10;;;20.70;70.20;;;;;;5074539;28;20437;-67
2022/08/09 04:00:55;;;;;;;1.63;1.20;;;20.60;70.30;;;;;;5074248;28;20048;-67
2022/08/09 04:03:22;;;;;;;2.92;1.33;;;20.70;70.50;;;;;;5074240;28;20048;-68
2022/08/09 04:05:48;;;;;;;3.78;1.33;;;20.80;69.80;;;;;;5073279;28;20460;-67
2022/08/09 04:08:14;;;;;;;1.35;0.93;;;20.90;69.40;;;;;;5074314;28;20515;-68
2022/08/09 04:10:40;;;;;;;1.30;1.10;;;20.70;70.00;;;;;;5075109;28;20110;-67
2022/08/09 04:13:10;;;;;;;1.60;1.20;;;20.40;70.70;;;;;;5084814;28;20040;-67
2022/08/09 04:15:37;;;;;;;2.17;1.23;;;20.30;71.70;;;;;;5091978;28;20089;-68
2022/08/09 04:18:04;;;;;;;2.15;0.95;;;20.00;71.60;;;;;;5094457;28;20047;-68
2022/08/09 04:20:30;;;;;;;1.73;1.30;;;20.00;72.20;;;;;;5094039;28;20132;-68
2022/08/09 04:22:57;;;;;;;1.55;1.20;;;20.00;71.60;;;;;;5084751;28;20048;-68
2022/08/09 04:25:23;;;;;;;1.42;1.33;;;19.90;71.90;;;;;;5071854;28;20048;-68
2022/08/09 04:27:49;;;;;;;2.45;1.17;;;19.90;72.20;;;;;;5073972;28;20035;-68
2022/08/09 04:30:21;;;;;;;1.25;1.00;;;19.70;72.90;;;;;;5074041;28;20032;-68
2022/08/09 04:32:49;;;;;;;1.40;1.10;;;19.80;72.70;;;;;;5073656;28;20043;-69
2022/08/09 04:35:15;;;;;;;2.65;1.55;;;19.90;72.30;;;;;;5084390;28;20138;-69
2022/08/09 04:37:41;;;;;;;2.25;1.33;;;19.90;72.60;;;;;;5094122;28;20444;-69
2022/08/09 04:40:08;;;;;;;2.10;1.20;;;19.80;72.60;;;;;;5092729;28;20039;-69
2022/08/09 04:42:34;;;;;;;1.33;1.10;;;19.70;73.20;;;;;;5075477;28;20056;-69
2022/08/09 04:45:00;;;;;;;2.15;1.10;;;19.60;72.60;;;;;;5073485;28;20040;-69
2022/08/09 04:47:28;;;;;;;1.85;1.50;;;19.60;72.30;;;;;;5073710;28;20083;-69
2022/08/09 04:49:54;;;;;;;1.80;1.20;;;19.60;72.20;;;;;;5088407;28;20510;-69
2022/08/09 04:52:22;;;;;;;1.30;1.08;;;19.50;73.10;;;;;;5093679;28;20074;-69
2022/08/09 04:54:50;;;;;;;1.60;1.40;;;19.50;73.00;;;;;;5093830;28;20032;-68
2022/08/09 04:57:16;;;;;;;1.35;1.10;;;19.70;72.70;;;;;;5084769;28;20036;-68
2022/08/09 04:59:42;;;;;;;1.45;1.10;;;19.70;72.90;;;;;;5073328;28;20530;-68
2022/08/09 05:02:09;;;;;;;1.77;1.10;;;19.60;73.30;;;;;;5073315;28;20063;-68
2022/08/09 05:04:36;;;;;;;1.30;1.20;;;;;;;;;;5073193;28;20036;-68
2022/08/09 05:07:02;;;;;;;1.55;1.15;;;19.20;73.50;;;;;;5073066;28;20492;-68
2022/08/09 05:09:29;;;;;;;1.52;1.20;;;19.40;73.20;;;;;;5073033;28;20086;-67
2022/08/09 05:11:56;;;;;;;1.63;1.45;;;19.50;73.20;;;;;;5073093;28;20070;-67
2022/08/09 05:14:22;;;;;;;2.35;1.40;;;19.10;74.80;;;;;;5073286;28;20036;-67
2022/08/09 05:16:48;;;;;;;1.90;1.40;;;18.90;75.60;;;;;;5073109;28;20044;-68
2022/08/09 05:19:14;;;;;;;1.23;1.13;;;19.00;75.60;;;;;;5073164;28;20089;-67
2022/08/09 05:21:41;;;;;;;2.85;1.35;;;19.00;74.60;;;;;;5073092;28;20089;-67
2022/08/09 05:24:07;;;;;;;2.85;1.40;;;19.00;75.00;;;;;;5067090;28;20161;-67
2022/08/09 05:26:34;;;;;;;1.85;1.42;;;18.70;76.40;;;;;;5051258;28;20063;-67
2022/08/09 05:29:00;;;;;;;2.47;1.30;;;18.70;76.80;;;;;;5052260;28;20032;-67
2022/08/09 05:31:27;;;;;;;1.92;1.70;;;18.90;76.00;;;;;;5063896;28;20176;-67
2022/08/09 05:33:52;;;;;;;1.52;1.27;;;19.00;76.80;;;;;;5091770;28;20048;-67
2022/08/09 05:36:19;;;;;;;1.40;1.15;;;19.20;75.90;;;;;;5092976;28;20043;-68
2022/08/09 05:38:45;;;;;;;1.23;1.13;;;19.40;75.50;;;;;;5091839;28;20101;-68
2022/08/09 05:41:10;;;;;;;3.17;1.40;;;19.40;75.80;;;;;;5092716;28;20044;-67
2022/08/09 05:43:36;;;;;;;1.88;1.30;;;19.60;75.90;;;;;;5093125;28;20036;-67
2022/08/09 05:46:03;;;;;;;1.48;1.30;;;19.80;75.80;;;;;;5091857;28;20043;-68
2022/08/09 05:48:28;;;;;;;1.70;1.27;;;20.10;75.20;;;;;;5074560;28;20094;-67
2022/08/09 05:50:56;;;;;;;1.38;1.27;;;20.40;74.40;;;;;;5072597;28;20068;-67
2022/08/09 05:53:22;;;;;;;1.23;1.13;;;20.60;74.30;;;;;;5071182;28;20040;-67
2022/08/09 05:55:50;;;;;;;2.85;1.50;;;20.80;74.10;;;;;;5072585;28;20086;-67
2022/08/09 05:58:15;;;;;;;1.67;1.38;;;20.90;73.70;;;;;;5072591;28;20040;-68
2022/08/09 06:00:42;;;;;;;1.95;1.40;;;21.10;73.50;;;;;;5072511;28;20033;-68
2022/08/09 06:03:09;;;;;;;2.85;1.40;;;21.20;71.80;;;;;;5072705;28;20080;-67
2022/08/09 06:05:35;;;;;;;2.35;1.33;;;21.40;72.20;;;;;;5072627;28;20139;-67
2022/08/09 06:08:01;;;;;;;2.17;1.40;;;21.60;72.10;;;;;;5072143;28;20120;-67
2022/08/09 06:10:39;;;;;;;2.22;1.30;;;21.70;71.80;;;;;;5072451;28;20120;-68
2022/08/09 06:13:09;;;;;;;2.25;1.20;;;21.80;71.90;;;;;;5071390;28;20384;-67
2022/08/09 06:15:35;;;;;;;3.97;1.30;;;22.50;71.70;;;;;;5072620;28;20052;-67
2022/08/09 06:18:01;;;;;;;1.92;1.30;;;23.00;70.40;;;;;;5072900;28;20044;-67
2022/08/09 06:20:30;;;;;;;1.08;0.98;;;23.60;72.70;;;;;;5088660;28;20038;-67
2022/08/09 06:22:58;;;;;;;5.03;1.40;;;23.70;70.20;;;;;;5092710;28;20542;-67
2022/08/09 06:25:24;;;;;;;2.63;1.25;;;24.00;69.40;;;;;;5092553;28;20575;-66
2022/08/09 06:27:52;;;;;;;1.33;1.23;;;;;;;;;;5092546;28;20122;-67
2022/08/09 06:30:18;;;;;;;1.73;1.27;;;24.50;67.50;;;;;;5092455;28;20089;-67
2022/08/09 06:32:45;;;;;;;1.65;1.17;;;24.50;67.80;;;;;;5090761;28;20039;-68
2022/08/09 06:35:12;;;;;;;2.00;1.30;;;24.60;87.20;;;;;;5071952;28;20048;-67
2022/08/09 06:37:37;;;;;;;3.00;1.30;;;24.70;77.00;;;;;;5072403;28;20491;-67
2022/08/09 06:40:07;;;;;;;1.90;0.90;;;24.60;67.50;;;;;;5073241;28;20036;-67
2022/08/09 06:42:33;;;;;;;1.73;1.40;;;24.60;68.40;;;;;;5080253;28;20406;-68
2022/08/09 06:45:00;;;;;;;3.28;1.27;;;24.90;74.50;;;;;;5072637;28;20036;-68
2022/08/09 06:47:26;;;;;;;1.35;1.00;;;25.10;67.30;;;;;;5087992;28;20036;-68
2022/08/09 06:49:52;;;;;;;1.83;1.10;;;25.30;81.00;;;;;;5095177;28;20085;-68
2022/08/09 06:52:19;;;;;;;1.20;0.93;;;25.40;66.40;;;;;;5096195;28;20131;-68
2022/08/09 06:54:45;;;;;;;1.92;1.05;;;25.40;65.60;;;;;;5093111;28;20090;-67
2022/08/09 06:57:11;;;;;;;4.30;1.25;;;25.60;65.90;;;;;;5094980;28;20039;-68
2022/08/09 06:59:39;;;;;;;1.10;1.00;;;26.00;65.80;;;;;;5094680;28;20044;-67
2022/08/09 07:02:05;;;;;;;1.92;1.20;;;26.10;64.80;;;;;;5095799;28;20467;-67
2022/08/09 07:04:31;;;;;;;1.95;1.10;;;26.50;63.50;;;;;;5091289;28;20078;-67
2022/08/09 07:06:59;;;;;;;1.88;1.52;;;26.30;62.60;;;;;;5084364;28;20093;-67
2022/08/09 07:09:26;;;;;;;4.68;1.10;;;26.60;62.90;;;;;;5085214;28;20783;-67
2022/08/09 07:11:52;;;;;;;2.75;0.90;;;26.90;61.90;;;;;;5089300;28;20048;-67
2022/08/09 07:14:17;;;;;;;1.83;1.00;;;27.10;62.00;;;;;;5092174;28;20735;-67
2022/08/09 07:16:44;;;;;;;3.45;1.33;;;26.80;68.00;;;;;;5078578;28;20044;-67
2022/08/09 07:19:11;;;;;;;1.90;1.10;;;27.00;63.00;;;;;;5083774;28;20060;-67
2022/08/09 07:21:39;;;;;;;4.32;1.20;;;27.00;61.30;;;;;;5079924;28;20046;-67
2022/08/09 07:24:07;;;;;;;1.27;1.10;;;26.90;61.40;;;;;;5077705;28;20572;-67
2022/08/09 07:26:33;;;;;;;1.27;0.93;;;27.20;62.40;;;;;;5090752;28;20100;-67
2022/08/09 07:28:59;;;;;;;1.55;1.20;;;26.80;62.40;;;;;;5080376;28;20036;-67
2022/08/09 07:31:25;;;;;;;1.98;1.40;;;27.30;62.00;;;;;;5086578;28;20032;-67
2022/08/09 07:33:51;;;;;;;1.10;1.00;;;27.40;62.70;;;;;;5081607;28;20040;-68
2022/08/09 07:36:17;;;;;;;4.07;1.35;;;27.30;63.10;;;;;;5074354;28;20812;-68
2022/08/09 07:38:44;;;;;;;2.53;1.13;;;27.20;63.50;;;;;;5072876;28;20052;-68
2022/08/09 07:41:12;;;;;;;1.67;1.30;;;27.00;62.40;;;;;;5073373;28;20048;-68
2022/08/09 07:43:39;;;;;;;2.85;1.60;;;27.20;62.90;;;;;;5075111;28;20517;-67
2022/08/09 07:46:07;;;;;;;1.25;1.15;;;27.20;62.00;;;;;;5074850;28;20051;-68
2022/08/09 07:48:33;;;;;;;1.58;1.00;;;27.20;63.40;;;;;;5075117;28;20391;-68
2022/08/09 07:51:00;;;;;;;2.67;1.20;;;27.60;62.70;;;;;;5073649;28;20052;-68
2022/08/09 07:53:27;;;;;;;1.23;1.10;;;27.80;62.30;;;;;;5072099;28;20518;-68
2022/08/09 07:55:53;;;;;;;4.32;1.25;;;27.80;62.10;;;;;;5058732;28;20076;-68
2022/08/09 07:58:19;;;;;;;1.45;1.05;;;27.80;62.40;;;;;;5063753;28;20501;-68
2022/08/09 08:00:46;;;;;;;1.40;1.30;;;28.00;62.50;;;;;;5073344;28;20043;-68
2022/08/09 08:03:11;;;;;;;0.98;0.90;;;28.40;61.80;;;;;;5073234;28;20041;-68
2022/08/09 08:05:39;;;;;;;1.92;1.30;;;28.60;61.30;;;;;;5072668;28;20090;-68
2022/08/09 08:08:07;;;;;;;2.28;1.27;;;28.80;61.20;;;;;;5071523;28;20079;-68
2022/08/09 08:10:33;;;;;;;1.30;1.08;;;28.30;60.90;;;;;;5070971;28;20472;-68
2022/08/09 08:12:59;;;;;;;1.92;1.15;;;28.10;61.10;;;;;;5074083;28;20116;-68
2022/08/09 08:15:26;;;;;;;1.77;1.23;;;26.60;61.70;;;;;;5072370;28;20494;-67
2022/08/09 08:17:52;;;;;;;1.40;1.13;;;27.40;61.50;;;;;;5064122;28;20459;-67
2022/08/09 08:20:20;;;;;;;1.58;1.13;;;26.80;61.20;;;;;;5050919;28;20072;-68
2022/08/09 08:22:46;;;;;;;1.75;1.02;;;27.60;61.60;;;;;;5051481;28;20538;-67
2022/08/09 08:25:12;;;;;;;1.30;1.17;;;28.70;61.50;;;;;;5052789;28;20029;-67
2022/08/09 08:27:38;;;;;;;1.48;1.02;;;28.80;60.40;;;;;;5051538;28;20037;-67
2022/08/09 08:30:04;;;;;;;1.55;1.20;;;28.80;60.20;;;;;;5051529;28;20411;-67
2022/08/09 08:32:30;;;;;;;2.25;1.20;;;28.60;60.80;;;;;;5051560;28;20041;-67
2022/08/09 08:34:57;;;;;;;3.65;1.40;;;28.50;59.60;;;;;;5050821;28;20127;-67
2022/08/09 08:37:28;;;;;;;2.60;1.17;;;29.10;60.30;;;;;;5049508;28;20044;-67
2022/08/09 08:39:54;;;;;;;1.63;1.25;;;27.90;59.80;;;;;;5050614;28;20045;-67
2022/08/09 08:42:21;;;;;;;1.30;1.20;;;28.20;61.90;;;;;;5051182;28;20432;-66
2022/08/09 08:44:56;;;;;;;1.80;1.15;;;28.60;61.60;;;;;;5051908;28;20033;-67
2022/08/09 08:47:22;;;;;;;3.42;1.17;;;;;;;;;;5050998;28;20052;-67
2022/08/09 08:49:51;;;;;;;1.00;0.95;;;29.10;59.60;;;;;;5051137;28;20111;-67
2022/08/09 08:52:21;;;;;;;2.50;1.30;;;29.00;59.50;;;;;;5050671;28;20044;-66
2022/08/09 08:54:53;;;;;;;1.25;1.15;;;29.10;59.50;;;;;;5050314;28;20037;-67
2022/08/09 08:57:28;;;;;;;1.65;1.30;;;29.20;59.00;;;;;;5051024;28;20043;-67
2022/08/09 08:59:55;;;;;;;1.80;1.23;;;29.10;60.00;;;;;;5052053;28;20568;-67
2022/08/09 09:02:29;;;;;;;1.58;1.20;;;29.30;60.20;;;;;;5048519;28;20052;-66
2022/08/09 09:05:00;;;;;;;3.55;0.85;;;29.80;60.00;;;;;;5050091;28;20041;-66
2022/08/09 09:07:31;;;;;;;1.38;0.90;;;28.80;58.90;;;;;;5049528;28;20041;-66
2022/08/09 09:09:58;;;;;;;2.20;1.10;;;29.00;59.20;;;;;;5051287;28;20098;-67
2022/08/09 09:12:28;;;;;;;2.10;1.30;;;29.10;58.80;;;;;;5052667;28;20041;-67
2022/08/09 09:14:58;;;;;;;2.30;1.10;;;29.50;58.60;;;;;;5044092;28;20509;-67
2022/08/09 09:17:24;;;;;;;1.45;1.35;;;29.30;59.30;;;;;;5070619;28;20116;-67
2022/08/09 09:19:51;;;;;;;3.33;1.00;;;29.20;58.90;;;;;;5071923;28;20043;-67
2022/08/09 09:22:18;;;;;;;3.85;1.52;;;28.60;59.80;;;;;;5071051;28;20426;-67
2022/08/09 09:25:02;;;;;;;1.45;1.20;;;29.30;59.20;;;;;;5071176;28;20064;-67
2022/08/09 09:27:28;;;;;;;1.45;1.20;;;29.30;57.90;;;;;;5070460;28;20128;-66
2022/08/09 09:29:54;;;;;;;3.30;1.20;;;29.60;59.80;;;;;;5070704;28;20123;-66
2022/08/09 09:32:24;;;;;;;1.45;1.30;;;28.40;58.80;;;;;;5070675;28;20032;-66
2022/08/09 09:35:11;;;;;;;1.35;1.15;;;28.40;59.30;;;;;;5070947;28;20036;-67
2022/08/09 09:37:38;;;;;;;1.10;1.00;;;29.50;59.00;;;;;;5072156;28;20044;-66
2022/08/09 09:40:09;;;;;;;1.67;1.17;;;29.80;58.70;;;;;;5069932;28;20036;-66
2022/08/09 09:42:35;;;;;;;2.75;1.15;;;29.80;58.30;;;;;;5070063;28;20526;-67
2022/08/09 09:45:07;;;;;;;1.77;0.90;;;30.40;57.90;;;;;;5071467;28;20039;-66
2022/08/09 09:47:33;;;;;;;1.20;1.05;;;29.40;58.30;;;;;;5070038;28;20045;-66
2022/08/09 09:50:03;;;;;;;5.07;1.67;;;29.00;58.80;;;;;;5071195;28;20036;-66
2022/08/09 09:52:29;;;;;;;3.00;1.00;;;29.50;58.40;;;;;;5068476;28;20032;-67
2022/08/09 09:55:04;;;;;;;1.90;1.13;;;28.90;58.80;;;;;;5070171;28;20043;-67
2022/08/09 09:57:32;;;;;;;2.95;1.08;;;29.40;58.40;;;;;;5070818;28;20037;-67
2022/08/09 09:59:58;;;;;;;1.40;1.10;;;29.70;58.20;;;;;;5071277;28;20052;-66
2022/08/09 10:02:25;;;;;;;1.38;0.82;;;28.00;58.70;;;;;;5070239;28;20044;-69
2022/08/09 10:05:09;;;;;;;5.45;0.90;;;28.90;58.50;;;;;;5054270;28;20075;-67
2022/08/09 10:07:37;;;;;;;1.10;1.00;;;28.80;59.20;;;;;;5086606;28;20483;-67
2022/08/09 10:10:05;;;;;;;4.85;1.27;;;28.90;59.00;;;;;;5077154;28;20044;-67
2022/08/09 10:12:36;;;;;;;1.42;0.93;;;29.50;58.30;;;;;;5078963;28;20085;-68
2022/08/09 10:15:14;;;;;;;1.10;1.00;;;29.50;58.30;;;;;;5084137;28;20039;-68
2022/08/09 10:17:42;;;;;;;1.23;1.02;;;29.10;58.60;;;;;;5073516;28;20414;-68
2022/08/09 10:20:20;;;;;;;1.35;1.10;;;29.30;57.80;;;;;;5082259;28;20121;-68
2022/08/09 10:22:59;;;;;;;1.08;0.98;;;29.30;58.60;;;;;;5072754;28;20101;-67
2022/08/09 10:25:26;;;;;;;2.25;1.17;;;28.60;59.40;;;;;;5076208;28;20060;-68
2022/08/09 10:27:54;;;;;;;1.60;1.10;;;28.70;59.00;;;;;;5076061;28;20048;-68
2022/08/09 10:30:21;;;;;;;1.38;1.00;;;29.20;58.80;;;;;;5073997;28;20044;-68
2022/08/09 10:32:47;;;;;;;1.63;1.23;;;29.20;58.10;;;;;;5074681;28;20045;-68
2022/08/09 10:35:13;;;;;;;2.85;1.20;;;29.00;58.70;;;;;;5073615;28;20032;-68
2022/08/09 10:37:40;;;;;;;1.58;1.02;;;29.10;58.50;;;;;;5073615;28;20052;-67
2022/08/09 10:40:06;;;;;;;1.83;1.20;;;29.00;58.60;;;;;;5073971;28;20033;-67
2022/08/09 10:42:34;;;;;;;1.40;1.30;;;28.10;59.20;;;;;;5074170;28;20055;-68
2022/08/09 10:45:07;;;;;;;1.67;1.40;;;28.20;59.70;;;;;;5074815;28;20040;-68
2022/08/09 10:47:46;;;;;;;1.73;1.10;;;28.20;59.90;;;;;;5072098;28;20055;-68
2022/08/09 10:53:31;;;;;;;3.03;1.20;;;28.90;59.50;;;;;;5069449;28;20039;-67
2022/08/09 10:56:23;;;;;;;1.70;1.25;;;29.30;58.80;;;;;;5072355;28;20128;-67
2022/08/09 10:58:51;;;;;;;2.75;1.40;;;28.80;59.00;;;;;;5072610;28;20036;-68
2022/08/09 11:01:32;;;;;;;2.03;1.35;;;29.20;59.30;;;;;;5072374;28;20036;-68
2022/08/09 11:04:17;;;;;;;2.25;1.40;;;28.90;58.90;;;;;;5070852;28;20074;-68
2022/08/09 11:06:44;;;;;;;2.30;1.30;;;28.90;59.50;;;;;;5071921;28;20033;-68
2022/08/09 11:09:16;;;;;;;1.80;1.40;;;29.00;59.10;;;;;;5074503;28;20051;-68
2022/08/09 11:11:56;;;;;;;2.67;1.70;;;28.90;60.20;;;;;;5070668;28;20090;-68
2022/08/09 11:14:43;;;;;;;3.78;1.40;;;29.20;59.00;;;;;;5069886;28;20040;-68
2022/08/09 11:17:12;;;;;;;2.35;1.10;;;28.40;60.40;;;;;;5071029;28;20036;-68
2022/08/09 11:20:00;;;;;;;2.20;1.50;;;28.80;59.70;;;;;;5069906;28;20035;-68
2022/08/09 11:22:42;;;;;;;1.30;1.17;;;29.20;59.20;;;;;;5070145;28;20048;-68
2022/08/09 11:25:15;;;;;;;2.13;1.23;;;28.80;59.30;;;;;;5071208;28;20530;-68
2022/08/09 11:27:42;;;;;;;1.95;1.30;;;29.20;59.40;;;;;;5073312;28;20037;-68
2022/08/09 11:30:09;;;;;;;4.82;1.20;;;29.50;58.70;;;;;;5073134;28;20037;-68
2022/08/09 11:32:43;;;;;;;2.97;1.48;;;29.20;59.10;;;;;;5073619;28;20127;-68
2022/08/09 11:35:32;;;;;;;3.78;1.40;;;28.90;59.60;;;;;;5072658;28;20120;-67
2022/08/09 11:38:13;;;;;;;2.10;1.40;;;28.90;59.30;;;;;;5073152;28;20376;-68
2022/08/09 11:40:39;;;;;;;2.40;1.30;;;29.50;60.20;;;;;;5070196;28;20135;-69
2022/08/09 11:43:06;;;;;;;3.42;1.10;;;29.70;58.10;;;;;;5071135;28;20052;-68
2022/08/09 11:45:39;;;;;;;1.55;1.20;;;29.30;58.50;;;;;;5068792;28;20056;-68
2022/08/09 11:48:11;;;;;;;1.13;1.02;;;29.00;58.80;;;;;;5071001;28;20044;-68
2022/08/09 11:50:55;;;;;;;1.40;1.30;;;29.40;58.70;;;;;;5072766;28;20079;-68
2022/08/09 11:53:23;;;;;;;1.65;1.48;;;29.00;59.10;;;;;;5062742;28;20047;-68
2022/08/09 11:55:51;;;;;;;1.55;1.35;;;28.80;58.50;;;;;;5054309;28;20052;-68
2022/08/09 11:58:17;;;;;;;1.45;1.25;;;28.70;59.00;;;;;;5052115;28;20146;-68
2022/08/09 12:00:50;;;;;;;1.75;1.33;;;29.20;58.70;;;;;;5059549;28;20045;-68
2022/08/09 12:03:26;;;;;;;3.10;1.40;;;29.50;58.40;;;;;;5066143;28;20076;-68
2022/08/09 12:05:55;;;;;;;1.17;1.00;;;29.40;58.00;;;;;;5072713;28;20036;-68
2022/08/09 12:08:21;;;;;;;2.00;1.25;;;29.50;57.70;;;;;;5071993;28;20421;-68
2022/08/09 12:10:58;;;;;;;1.65;1.30;;;29.80;58.00;;;;;;5071618;28;20544;-69
2022/08/09 12:13:46;;;;;;;1.33;1.10;;;29.30;57.60;;;;;;5072051;28;20048;-69
2022/08/09 12:16:31;;;;;;;2.05;1.13;;;29.20;58.80;;;;;;5071960;28;20044;-68
2022/08/09 12:18:58;;;;;;;1.83;1.30;;;29.70;58.20;;;;;;5071173;28;20049;-70
2022/08/09 12:21:34;;;;;;;2.50;1.65;;;29.80;59.40;;;;;;5072070;28;20052;-67
2022/08/09 12:24:02;;;;;;;1.17;1.08;;;30.30;57.80;;;;;;5071910;28;20044;-68
2022/08/09 12:26:43;;;;;;;2.35;1.40;;;29.90;57.20;;;;;;5072069;28;20044;-69
2022/08/09 12:29:15;;;;;;;1.77;1.42;;;30.00;57.40;;;;;;5072645;28;20040;-68
2022/08/09 12:31:41;;;;;;;1.55;1.40;;;30.10;57.30;;;;;;5073709;28;20502;-70
2022/08/09 12:34:07;;;;;;;3.70;1.70;;;29.60;57.70;;;;;;5073761;28;20119;-70
2022/08/09 12:36:33;;;;;;;2.33;1.40;;;29.50;58.40;;;;;;5072342;28;20127;-70
2022/08/09 12:38:59;;;;;;;1.67;1.40;;;29.40;57.90;;;;;;5071293;28;20079;-69
2022/08/09 12:41:28;;;;;;;2.03;1.10;;;29.10;57.40;;;;;;5073394;28;20051;-69
2022/08/09 12:43:55;;;;;;;1.60;1.20;;;30.00;57.00;;;;;;5072645;28;20051;-68
2022/08/09 12:46:22;;;;;;;1.20;1.10;;;30.10;57.00;;;;;;5070720;28;20464;-69
2022/08/09 12:48:48;;;;;;;1.70;1.10;;;30.00;56.60;;;;;;5071387;28;20515;-68
2022/08/09 12:51:18;;;;;;;1.88;1.30;;;30.50;56.90;;;;;;5073180;28;20048;-67
2022/08/09 12:53:44;;;;;;;2.40;1.45;;;30.00;56.60;;;;;;5073099;28;20123;-68
2022/08/09 12:56:15;;;;;;;1.63;1.23;;;30.10;56.20;;;;;;5070730;28;20131;-68
2022/08/09 12:58:43;;;;;;;2.67;1.40;;;29.80;56.60;;;;;;5072150;28;20049;-68
2022/08/09 13:01:23;;;;;;;1.35;1.25;;;29.80;56.90;;;;;;5073099;28;20556;-68
2022/08/09 13:04:10;;;;;;;1.60;1.50;;;30.00;56.00;;;;;;5073371;28;20128;-68
2022/08/09 13:06:41;;;;;;;2.25;1.10;;;29.80;56.40;;;;;;5072750;28;20127;-68